Terminal Aerodrome Forecast
Issued by NWS

Home | Current Version | Previous Version | Graphics & Text | Print | Product List | Glossary On
Versions: 1 2 3 4 5 6 7 8 9 10 11 12 13 14 15 16 17
648
FTUS41 KCLE 160313 AAB
TAFFDY
TAF AMD
KFDY 160313Z 1603/1624 24008KT P6SM BKN025
      TEMPO 1603/1607 BKN050
     FM162100 26008KT P6SM OVC050=

USA.gov is the U.S. government's official web portal to all federal, state and local government web resources and services.